Portada
METAR-TAF:

METAR-TAF

Aeroports :

Base Naval de Rota

Rota, Espanya

latitud: 36-39N, longitud: 006-21W, altitud: 26 m

Observació

L'informe es va fer fa 22 minuts, a les 04:00 UTC
Vent 4 kt del Est
Temperatura 11°C
Humitat 94%
Pressió 1014 hPa
Visibilitat 10 km o més
Escasses núvols a una alçada de 2000 ft

METAR: LERT 190400Z 09004KT 9999 FEW020 11/10 Q1014 NOSIG

Hora: 06:22 (04:22 UTC)

Pronòstic

L'informe es va fer fa 2 hores i 22 minuts, a les 02:00 UTC
Pronòstic vàlid del 19 a les 03 UTC al 19 a les 12 UTC
Vent 5 kt del Nord-Oest
Visibilitat 10 km o més
Escasses núvols a una alçada de 2000 ft
Núvols disperses a una alçada de 4500 ft
Evolucionant progressivament
l' 19 a les 10 UTC al 19 a les 12 UTC
Vent 10 kt del Oest

TAF: LERT 190200Z 1903/1912 32005KT 9999 FEW020 SCT045 BECMG 1910/1912 26010KT

Observacions i pronòstics meteorològics de més de 4000 aeroports (METAR i TAF).

Les estacions disponibles són els punts grocs i vermells al mapa.

Posi el ratolí al punt desitjat per veure el nom de l'estació.

Feu clic per veure les observacions i els pronòstics meteorològics.

Per canviar el mapa: feu clic els botons verds amb una creu de color negre per apropar; al botó verd amb un guió per allunyar la imatge; o en les fletxes verdes per a mapes adjacents.


METAR-TAF: